Pinebluff, North Carolina
Current Conditions -  °F | °C
As of 12:32 PM on Friday 24 Oct 2014 (Local Time) from KHFF Reporting Station
Clear Clear  
Wind Chill: 64°   Ceiling: Unl
Heat Index: 64°   Visibility: 10mi
Dew Point: 45°   Wind: 1mph
Humidity: 49%   Direction: NA
Pressure: 30.05"   Gusts: NA
Location:  35.11°N, 79.47°W
Report Text: KHFF 241632Z AUTO VRB01KT 10SM CLR 18/07 A3005 RMK AO2
Loading
Personal Weather Stations






























Interactive Weather Map New forecast layout! Learn more

10-Day Weather Forecast

Advertisements
Track Severe Weather on mobile